Time;durP1;ratioP1;P1;durP2;ratioP2;P2;SDS_P1;SDS_P2;PMS_P1;PMS_P2;Temp;Humidity;BMP_temperature;BMP_pressure;BME280_temperature;BME280_humidity;BME280_pressure;Samples;Min_cycle;Max_cycle;Signal;HPM_P1;HPM_P2
2022/07/10 00:02:38;;;;;;;6.33;4.87;;;;;;;22.71;56.90;99362.72;7036978;28;20215;-80
2022/07/10 00:06:00;;;;;;;5.87;4.53;;;;;;;22.92;56.49;99372.69;7037170;28;20289;-79
2022/07/10 00:09:23;;;;;;;5.37;4.87;;;;;;;23.09;56.39;99403.53;7036380;28;20207;-80
2022/07/10 00:12:45;;;;;;;5.47;4.60;;;;;;;22.99;56.79;99414.50;7036683;28;20233;-80
2022/07/10 00:16:07;;;;;;;4.77;4.37;;;;;;;23.04;56.66;99401.63;7036283;28;20255;-80
2022/07/10 00:19:29;;;;;;;4.70;4.30;;;;;;;23.07;56.17;99381.78;7034886;28;20204;-80
2022/07/10 00:22:50;;;;;;;5.10;4.70;;;;;;;23.03;56.75;99401.88;7036743;28;20228;-80
2022/07/10 00:26:13;;;;;;;5.43;4.70;;;;;;;22.97;56.37;99397.47;7036720;28;20580;-80
2022/07/10 00:29:35;;;;;;;6.00;5.50;;;;;;;22.35;58.04;99369.97;7035377;28;20287;-80
2022/07/10 00:32:56;;;;;;;7.27;6.50;;;;;;;22.13;59.58;99394.00;7036333;28;20285;-80
2022/07/10 00:36:18;;;;;;;6.27;5.43;;;;;;;22.35;59.11;99364.47;7036188;28;20260;-80
2022/07/10 00:39:39;;;;;;;7.20;6.47;;;;;;;22.60;58.71;99402.28;7035140;28;20213;-80
2022/07/10 00:43:02;;;;;;;7.03;6.37;;;;;;;22.88;57.45;99393.56;7035750;28;20255;-80
2022/07/10 00:46:24;;;;;;;6.90;6.40;;;;;;;22.97;56.82;99392.78;7036328;28;20238;-80
2022/07/10 00:49:46;;;;;;;7.17;5.90;;;;;;;22.84;56.53;99390.53;7034807;28;20201;-80
2022/07/10 00:53:08;;;;;;;7.60;6.70;;;;;;;22.61;57.94;99396.47;7035317;28;20312;-80
2022/07/10 00:56:29;;;;;;;6.63;5.97;;;;;;;22.66;57.48;99388.25;7035866;28;20203;-80
2022/07/10 00:59:52;;;;;;;6.40;5.90;;;;;;;22.83;57.34;99391.63;7034759;28;20720;-80
2022/07/10 01:03:14;;;;;;;6.87;5.33;;;;;;;22.74;57.61;99390.50;7034709;28;20245;-80
2022/07/10 01:06:36;;;;;;;5.97;5.57;;;;;;;22.66;57.91;99377.25;7035297;28;20282;-80
2022/07/10 01:09:59;;;;;;;7.00;6.23;;;;;;;22.76;57.13;99382.81;7034039;28;20524;-80
2022/07/10 01:13:20;;;;;;;9.30;6.47;;;;;;;22.17;58.82;99369.56;7035429;28;20249;-80
2022/07/10 01:16:43;;;;;;;6.80;5.93;;;;;;;22.31;58.95;99360.59;7035626;28;20213;-80
2022/07/10 01:20:06;;;;;;;6.57;5.83;;;;;;;22.49;58.43;99373.09;7034234;28;20199;-80
2022/07/10 01:23:29;;;;;;;6.90;6.20;;;;;;;22.28;58.71;99374.88;7035594;28;20217;-80
2022/07/10 01:26:51;;;;;;;6.93;6.33;;;;;;;22.36;58.36;99377.09;7036511;28;20216;-80
2022/07/10 01:30:12;;;;;;;5.80;5.30;;;;;;;22.28;58.25;99361.13;7036345;28;20281;-80
2022/07/10 01:33:34;;;;;;;6.37;5.63;;;;;;;22.25;58.12;99377.31;7037803;28;20259;-80
2022/07/10 01:36:55;;;;;;;6.67;5.80;;;;;;;22.22;58.21;99369.59;7045233;28;20208;-80
2022/07/10 01:40:18;;;;;;;6.90;6.30;;;;;;;21.66;60.19;99360.13;7042533;28;20254;-80
2022/07/10 01:43:42;;;;;;;5.80;5.20;;;;;;;22.16;58.64;99368.75;7031777;28;20632;-80
2022/07/10 01:47:04;;;;;;;5.87;5.30;;;;;;;21.97;58.75;99361.22;7031533;28;20220;-79
2022/07/10 01:50:26;;;;;;;5.90;5.30;;;;;;;21.88;58.67;99363.63;7031373;28;20301;-80
2022/07/10 01:53:47;;;;;;;5.87;5.37;;;;;;;21.89;58.44;99365.28;7032292;28;20230;-79
2022/07/10 01:57:10;;;;;;;5.63;5.13;;;;;;;21.73;58.16;99355.28;7032179;28;20224;-79
2022/07/10 02:00:32;;;;;;;6.53;5.67;;;;;;;21.29;60.13;99381.22;7032206;28;20202;-80
2022/07/10 02:07:32;;;;;;;7.97;6.83;;;;;;;21.43;60.09;99373.41;7031019;28;20188;-79
2022/07/10 02:10:54;;;;;;;6.77;5.60;;;;;;;21.61;59.17;99368.31;7031780;28;20297;-80
2022/07/10 02:14:17;;;;;;;5.90;5.30;;;;;;;21.69;58.10;99367.88;7031184;28;20602;-80
2022/07/10 02:17:39;;;;;;;6.00;5.47;;;;;;;21.76;57.82;99376.72;7031132;28;20261;-81
2022/07/10 02:21:01;;;;;;;10.37;5.87;;;;;;;21.58;58.07;99371.59;7029978;28;20207;-80
2022/07/10 02:24:23;;;;;;;6.70;6.03;;;;;;;21.23;58.98;99371.28;7032018;28;20222;-80
2022/07/10 02:27:45;;;;;;;6.63;6.07;;;;;;;21.16;58.75;99372.59;7030586;28;20294;-80
2022/07/10 02:31:08;;;;;;;6.30;5.70;;;;;;;21.00;60.32;99373.53;7032119;28;20233;-80
2022/07/10 02:34:29;;;;;;;6.30;5.80;;;;;;;21.08;59.58;99384.84;7031712;28;20225;-80
2022/07/10 02:37:51;;;;;;;7.03;6.33;;;;;;;20.83;60.12;99376.31;7031410;28;20290;-80
2022/07/10 02:41:12;;;;;;;6.03;5.53;;;;;;;21.31;59.16;99389.19;7032155;28;20202;-80
2022/07/10 02:44:34;;;;;;;6.80;6.20;;;;;;;20.92;58.74;99392.34;7031619;28;20221;-80
2022/07/10 02:47:57;;;;;;;6.13;5.63;;;;;;;21.06;59.62;99397.19;7030915;28;20207;-79
2022/07/10 02:51:18;;;;;;;5.60;5.10;;;;;;;21.19;58.84;99377.56;7031578;28;20209;-80
2022/07/10 02:54:40;;;;;;;5.67;5.17;;;;;;;21.00;59.19;99381.75;7031891;28;20310;-79
2022/07/10 02:58:02;;;;;;;5.47;5.07;;;;;;;21.27;58.62;99399.88;7030729;28;20208;-79
2022/07/10 03:01:23;;;;;;;6.10;5.50;;;;;;;21.01;58.65;99397.13;7032901;28;20204;-80
2022/07/10 03:04:46;;;;;;;7.30;6.43;;;;;;;20.67;59.86;99404.63;7032530;28;20230;-80
2022/07/10 03:08:08;;;;;;;6.13;5.63;;;;;;;21.04;59.19;99409.50;7033090;28;20756;-80
2022/07/10 03:11:39;;;;;;;6.90;5.93;;;;;;;20.99;58.65;99407.50;7035417;28;20269;-81
2022/07/10 03:15:00;;;;;;;6.37;5.70;;;;;;;20.97;59.55;99406.09;7037856;28;20225;-80
2022/07/10 03:18:22;;;;;;;6.97;6.30;;;;;;;20.75;59.73;99388.84;7033050;28;20218;-80
2022/07/10 03:21:46;;;;;;;7.00;6.30;;;;;;;20.74;60.41;99414.59;7036381;28;20208;-80
2022/07/10 03:25:08;;;;;;;7.33;6.67;;;;;;;20.76;60.29;99402.25;7036435;28;20221;-79
2022/07/10 03:28:30;;;;;;;8.30;7.20;;;;;;;20.75;60.34;99403.34;7033984;28;20243;-80
2022/07/10 03:31:52;;;;;;;8.30;7.00;;;;;;;20.52;60.55;99372.66;7040572;28;20260;-80
2022/07/10 03:35:14;;;;;;;8.37;7.37;;;;;;;20.84;60.08;99410.88;7039397;28;20230;-80
2022/07/10 03:38:37;;;;;;;6.80;6.20;;;;;;;20.65;59.91;99414.22;7038598;28;20215;-79
2022/07/10 03:41:59;;;;;;;8.67;7.87;;;;;;;20.61;60.60;99413.06;7039394;28;20610;-79
2022/07/10 03:45:20;;;;;;;8.43;7.63;;;;;;;20.14;61.61;99408.28;7040219;28;20241;-80
2022/07/10 03:48:42;;;;;;;9.20;7.70;;;;;;;20.64;60.64;99404.31;7038710;28;20207;-79
2022/07/10 03:52:04;;;;;;;8.20;7.50;;;;;;;20.60;60.35;99373.03;7040368;28;20670;-78
2022/07/10 03:55:27;;;;;;;8.83;7.93;;;;;;;21.11;58.61;99385.44;7034746;28;20227;-79
2022/07/10 03:58:48;;;;;;;9.23;8.20;;;;;;;20.76;59.66;99396.78;7034788;28;20221;-79
2022/07/10 04:02:12;;;;;;;8.80;7.93;;;;;;;21.14;59.00;99392.03;7040184;28;20234;-78
2022/07/10 04:05:34;;;;;;;9.33;7.10;;;;;;;20.82;58.87;99378.50;7034514;28;20263;-80
2022/07/10 04:08:55;;;;;;;8.80;8.00;;;;;;;20.92;59.25;99387.69;7035307;28;20203;-80
2022/07/10 04:12:18;;;;;;;9.57;7.87;;;;;;;21.17;58.52;99394.28;7034994;28;20201;-79
2022/07/10 04:15:40;;;;;;;9.13;8.23;;;;;;;20.72;59.69;99392.06;7034123;28;20781;-79
2022/07/10 04:19:01;;;;;;;9.80;7.93;;;;;;;;;;7024091;28;20690;-79
2022/07/10 04:22:23;;;;;;;9.20;7.77;;;;;;;20.61;59.36;99371.09;7017949;28;20178;-79
2022/07/10 04:25:44;;;;;;;8.17;7.33;;;;;;;20.82;59.80;99406.72;7006476;28;20227;-78
2022/07/10 04:29:07;;;;;;;8.00;7.20;;;;;;;21.02;58.83;99402.31;7024051;28;20222;-81
2022/07/10 04:32:29;;;;;;;8.33;7.63;;;;;;;21.12;59.01;99401.63;7019757;28;20211;-79
2022/07/10 04:36:07;;;;;;;10.27;7.77;;;;;;;21.17;58.09;99407.16;7020051;28;20269;-80
2022/07/10 04:39:29;;;;;;;11.07;7.10;;;;;;;21.24;58.63;99411.34;7017872;28;20272;-79
2022/07/10 04:42:50;;;;;;;8.53;7.03;;;;;;;21.31;58.09;99416.63;7014024;28;20246;-79
2022/07/10 04:46:14;;;;;;;7.27;6.53;;;;;;;21.06;57.30;99356.06;7022467;28;20578;-80
2022/07/10 04:49:36;;;;;;;7.30;6.60;;;;;;;21.49;57.49;99408.84;7020469;28;20593;-80
2022/07/10 04:52:58;;;;;;;7.17;6.07;;;;;;;21.58;57.42;99398.22;7023374;28;20238;-79
2022/07/10 04:56:19;;;;;;;7.83;6.90;;;;;;;20.94;58.53;99403.88;7010673;28;20212;-79
2022/07/10 04:59:41;;;;;;;9.80;6.47;;;;;;;21.27;58.56;99399.03;7014059;28;20203;-79
2022/07/10 05:03:08;;;;;;;8.33;6.40;;;;;;;21.73;56.79;99407.44;7014892;28;20690;-78
2022/07/10 05:06:29;;;;;;;8.47;6.40;;;;;;;21.59;56.16;99353.25;7010854;28;20201;-79
2022/07/10 05:09:51;;;;;;;6.47;5.73;;;;;;;21.56;56.46;99384.78;7005397;28;20210;-79
2022/07/10 05:13:13;;;;;;;8.17;6.07;;;;;;;21.86;55.97;99418.00;7003954;28;20613;-79
2022/07/10 05:16:35;;;;;;;6.97;6.07;;;;;;;22.02;55.14;99419.75;7004153;28;20221;-79
2022/07/10 05:19:58;;;;;;;7.53;6.60;;;;;;;21.64;56.72;99400.75;7026606;28;20198;-80
2022/07/10 05:23:20;;;;;;;5.83;5.17;;;;;;;22.23;55.93;99406.97;7010871;28;20230;-79
2022/07/10 05:26:41;;;;;;;6.57;5.53;;;;;;;22.15;55.19;99427.53;7006952;28;20204;-79
2022/07/10 05:30:03;;;;;;;6.20;5.60;;;;;;;22.35;54.07;99399.34;7006014;28;20224;-79
2022/07/10 05:33:26;;;;;;;5.20;4.70;;;;;;;22.35;53.88;99441.41;7007187;28;20263;-78
2022/07/10 05:36:49;;;;;;;6.70;5.27;;;;;;;22.24;54.84;99431.44;7007271;28;20195;-79
2022/07/10 05:40:11;;;;;;;6.80;5.40;;;;;;;22.09;54.49;99417.63;7005193;28;20663;-80
2022/07/10 05:43:33;;;;;;;5.80;5.20;;;;;;;21.95;53.95;99401.84;7005385;28;20233;-79
2022/07/10 05:46:55;;;;;;;5.97;5.30;;;;;;;21.88;54.94;99417.72;7004662;28;20263;-79
2022/07/10 05:50:16;;;;;;;6.50;5.47;;;;;;;21.27;56.02;99431.94;7004693;28;20211;-79
2022/07/10 05:53:39;;;;;;;6.30;5.47;;;;;;;21.57;54.79;99411.13;7004371;28;20229;-80
2022/07/10 05:57:01;;;;;;;6.30;4.97;;;;;;;21.66;55.25;99458.13;7007074;28;20215;-78
2022/07/10 06:00:23;;;;;;;5.50;4.73;;;;;;;21.60;54.84;99461.91;7008344;28;20214;-78
2022/07/10 06:03:45;;;;;;;5.53;4.00;;;;;;;21.77;52.19;99463.47;7026834;28;20218;-81
2022/07/10 06:07:07;;;;;;;4.60;4.20;;;;;;;22.00;53.10;99457.63;7031479;28;20243;-80
2022/07/10 06:10:31;;;;;;;5.93;3.53;;;;;;;21.65;51.52;99434.53;7018231;28;20226;-80
2022/07/10 06:13:53;;;;;;;5.57;3.87;;;;;;;22.11;51.53;99448.38;7029592;28;20255;-80
2022/07/10 06:17:14;;;;;;;6.30;3.87;;;;;;;22.08;49.65;99448.91;7031564;28;20249;-80
2022/07/10 06:20:36;;;;;;;5.00;3.57;;;;;;;22.02;50.17;99446.41;7030084;28;20241;-79
2022/07/10 06:23:58;;;;;;;7.00;3.70;;;;;;;22.00;49.26;99462.28;7033968;28;20591;-80
2022/07/10 06:27:21;;;;;;;5.00;3.37;;;;;;;22.17;49.26;99461.06;7033360;28;20220;-79
2022/07/10 06:30:43;;;;;;;4.97;3.23;;;;;;;22.39;49.27;99461.78;7055499;28;20197;-83
2022/07/10 06:34:04;;;;;;;4.83;3.00;;;;;;;22.49;48.40;99461.84;7033688;28;20221;-80
2022/07/10 06:37:26;;;;;;;3.87;2.80;;;;;;;22.39;48.75;99438.94;7032487;28;20259;-80
2022/07/10 06:40:48;;;;;;;4.70;3.10;;;;;;;22.45;48.83;99466.22;7022601;28;20210;-79
2022/07/10 06:44:11;;;;;;;4.53;3.00;;;;;;;22.43;48.06;99453.84;7024453;28;20309;-80
2022/07/10 06:51:12;;;;;;;4.33;3.17;;;;;;;22.54;47.86;99459.13;7007679;28;20204;-80
2022/07/10 06:54:34;;;;;;;4.70;3.10;;;;;;;22.78;47.87;99454.84;7033502;28;20225;-81
2022/07/10 06:57:56;;;;;;;5.03;2.80;;;;;;;22.73;47.18;99471.31;7022687;28;20210;-81
2022/07/10 07:01:19;;;;;;;3.57;2.80;;;;;;;22.59;47.16;99455.59;7019071;28;20295;-81
2022/07/10 07:04:40;;;;;;;2.97;2.40;;;;;;;21.63;48.34;99473.22;7011398;28;20219;-81
2022/07/10 07:08:02;;;;;;;2.87;2.33;;;;;;;22.12;46.60;99465.69;7007513;28;20745;-82
2022/07/10 07:11:24;;;;;;;3.57;2.57;;;;;;;22.07;46.23;99480.19;7013821;28;20210;-81
2022/07/10 07:14:45;;;;;;;3.17;2.43;;;;;;;22.67;44.37;99477.06;7014062;28;20758;-81
2022/07/10 07:18:12;;;;;;;4.63;2.20;;;;;;;22.85;42.83;99476.63;7009445;28;20229;-82
2022/07/10 07:25:13;;;;;;;4.23;2.53;;;;;;;22.23;43.48;99483.88;7014010;28;20254;-82
2022/07/10 07:28:35;;;;;;;7.20;2.67;;;;;;;23.10;42.13;99477.56;7009627;28;20204;-81
2022/07/10 07:31:58;;;;;;;4.73;2.20;;;;;;;23.71;40.49;99484.06;7009477;28;20208;-81
2022/07/10 07:35:21;;;;;;;3.07;1.73;;;;;;;24.11;39.92;99467.56;7008699;28;20225;-81
2022/07/10 07:38:42;;;;;;;4.40;2.00;;;;;;;22.87;41.84;99480.75;7008740;28;20202;-82
2022/07/10 07:42:05;;;;;;;2.30;1.90;;;;;;;23.48;40.74;99481.84;7009362;28;20214;-81
2022/07/10 07:45:27;;;;;;;3.20;2.10;;;;;;;23.90;40.05;99474.22;7008848;28;20247;-81
2022/07/10 07:48:49;;;;;;;5.63;2.07;;;;;;;23.83;40.37;99477.19;7008085;28;20269;-81
2022/07/10 07:52:13;;;;;;;2.40;1.97;;;;;;;22.69;42.04;99481.22;7009182;28;20206;-81
2022/07/10 07:55:36;;;;;;;3.03;2.30;;;;;;;23.34;40.62;99475.19;7008998;28;20245;-81
2022/07/10 07:58:58;;;;;;;5.23;2.23;;;;;;;23.49;41.20;99489.78;7007618;28;20210;-81
2022/07/10 08:02:21;;;;;;;2.87;1.90;;;;;;;23.66;39.36;99471.09;7008659;28;20201;-82
2022/07/10 08:05:43;;;;;;;3.97;2.20;;;;;;;23.28;40.36;99490.84;7010093;28;20341;-81
2022/07/10 08:09:05;;;;;;;3.57;2.10;;;;;;;23.09;41.22;99488.81;7016339;28;20202;-81
2022/07/10 08:12:27;;;;;;;2.60;2.00;;;;;;;23.48;40.00;99498.34;7009254;28;20284;-81
2022/07/10 08:15:49;;;;;;;3.67;2.00;;;;;;;22.92;42.49;99497.28;7008833;28;20260;-79
2022/07/10 08:19:10;;;;;;;4.10;2.17;;;;;;;23.51;39.98;99487.63;7007690;28;20198;-80
2022/07/10 08:22:32;;;;;;;3.77;1.83;;;;;;;23.98;39.44;99488.25;7009079;28;20293;-80
2022/07/10 08:25:55;;;;;;;3.03;1.90;;;;;;;24.37;38.20;99478.28;7009820;28;20209;-80
2022/07/10 08:29:17;;;;;;;3.90;1.93;;;;;;;25.65;35.76;99473.72;7017937;28;20209;-81
2022/07/10 08:32:40;;;;;;;2.50;1.80;;;;;;;25.85;34.42;99457.84;7024354;28;20209;-81
2022/07/10 08:36:01;;;;;;;3.90;1.73;;;;;;;25.94;34.60;99469.94;7011071;28;20602;-80
2022/07/10 08:39:25;;;;;;;2.13;1.63;;;;;;;24.44;36.31;99462.31;7014968;28;20476;-80
2022/07/10 08:42:49;;;;;;;2.00;1.80;;;;;;;24.11;38.26;99471.16;7018002;28;20226;-80
2022/07/10 08:46:12;;;;;;;4.70;2.30;;;;;;;23.90;37.48;99474.22;7024145;28;20207;-80
2022/07/10 08:49:35;;;;;;;3.27;1.80;;;;;;;23.58;38.16;99448.78;7028132;28;20208;-80
2022/07/10 08:53:01;;;;;;;4.43;1.87;;;;;;;25.02;36.86;99461.59;7010300;28;20295;-80
2022/07/10 08:56:23;;;;;;;4.10;1.83;;;;;;;25.52;35.53;99453.09;7011268;28;20222;-80
2022/07/10 08:59:46;;;;;;;2.93;1.80;;;;;;;23.89;37.47;99454.09;7006892;28;20206;-80
2022/07/10 09:03:08;;;;;;;5.17;1.70;;;;;;;24.17;37.98;99453.53;7007200;28;20228;-80
2022/07/10 09:06:30;;;;;;;3.00;1.90;;;;;;;22.89;39.82;99472.25;7035148;28;20266;-80
2022/07/10 09:09:54;;;;;;;2.73;2.10;;;;;;;24.66;37.97;99473.84;7024368;28;20262;-81
2022/07/10 09:13:16;;;;;;;5.17;2.30;;;;;;;25.36;35.76;99446.00;7039745;28;20304;-80
2022/07/10 09:16:40;;;;;;;3.33;1.93;;;;;;;25.81;33.21;99420.00;7046049;28;20374;-80
2022/07/10 09:20:02;;;;;;;15.97;14.27;;;;;;;24.58;35.77;99485.47;7015626;28;20610;-80
2022/07/10 09:23:25;;;;;;;12.37;7.70;;;;;;;25.27;35.10;99482.78;7006758;28;20226;-80
2022/07/10 09:26:59;;;;;;;21.47;13.80;;;;;;;26.09;33.66;99455.16;7009082;28;20206;-82
2022/07/10 09:30:32;;;;;;;44.70;30.93;;;;;;;26.01;33.75;99455.78;7010256;28;20202;-81
2022/07/10 09:33:55;;;;;;;37.80;33.80;;;;;;;26.81;31.80;99452.22;7023454;28;20699;-81
2022/07/10 09:37:26;;;;;;;57.93;40.20;;;;;;;26.24;32.25;99449.50;7041065;28;20201;-81
2022/07/10 09:40:48;;;;;;;3.83;2.10;;;;;;;25.38;33.21;99471.41;7037826;28;20204;-81
2022/07/10 09:44:11;;;;;;;2.33;1.90;;;;;;;25.63;33.17;99495.25;7037313;28;20228;-81
2022/07/10 09:47:32;;;;;;;2.17;1.60;;;;;;;24.66;33.93;99470.28;7038154;28;20221;-81
2022/07/10 09:50:55;;;;;;;3.53;1.60;;;;;;;25.56;33.26;99478.19;7039322;28;20208;-81
2022/07/10 09:54:18;;;;;;;3.10;1.90;;;;;;;25.28;33.50;99481.66;7038185;28;20366;-80
2022/07/10 09:57:40;;;;;;;2.37;1.90;;;;;;;24.59;35.16;99476.09;7045784;28;20690;-81
2022/07/10 10:01:03;;;;;;;3.03;1.80;;;;;;;24.35;34.65;99482.44;7041145;28;20227;-80
2022/07/10 10:04:25;;;;;;;2.60;1.70;;;;;;;25.05;33.61;99482.28;7008038;28;20225;-81
2022/07/10 10:07:48;;;;;;;3.87;2.60;;;;;;;24.69;33.78;99478.84;7015161;28;20213;-81
2022/07/10 10:11:18;;;;;;;2.40;1.70;;;;;;;25.98;32.11;99471.00;7018161;28;20206;-81
2022/07/10 10:14:40;;;;;;;3.40;1.77;;;;;;;25.27;32.54;99450.47;7014730;28;20239;-81
2022/07/10 10:18:03;;;;;;;2.37;1.80;;;;;;;26.13;32.08;99457.03;7008365;28;20216;-81
2022/07/10 10:21:26;;;;;;;1.57;1.47;;;;;;;26.84;29.81;99440.56;7012488;28;20290;-80
2022/07/10 10:24:49;;;;;;;1.33;1.20;;;;;;;25.17;32.56;99444.13;7008462;28;20228;-80
2022/07/10 10:28:11;;;;;;;1.90;1.67;;;;;;;25.18;32.76;99440.28;7049272;28;20690;-81
2022/07/10 10:31:34;;;;;;;3.13;1.40;;;;;;;24.21;33.44;99437.25;7055424;28;20267;-80
2022/07/10 10:34:57;;;;;;;6.27;1.73;;;;;;;24.51;33.14;99445.47;7034581;28;20232;-81
2022/07/10 10:38:18;;;;;;;4.93;1.90;;;;;;;25.61;31.12;99434.78;7037938;28;20209;-79
2022/07/10 10:41:42;;;;;;;3.00;1.63;;;;;;;26.21;30.87;99450.06;7037375;28;20684;-80
2022/07/10 10:45:27;;;;;;;1.93;1.40;;;;;;;26.36;30.56;99433.34;7038087;28;20226;-81
2022/07/10 10:49:07;;;;;;;3.47;1.40;;;;;;;24.69;31.97;99437.47;7028154;28;20207;-80
2022/07/10 10:52:29;;;;;;;2.47;1.50;;;;;;;24.91;31.55;99426.06;7024162;28;20216;-81
2022/07/10 11:00:06;;;;;;;2.30;1.17;;;;;;;25.64;31.58;99445.25;7035941;28;20199;-80
2022/07/10 11:03:30;;;;;;;4.60;1.67;;;;;;;24.83;33.04;99437.69;7032615;28;20224;-81
2022/07/10 11:06:53;;;;;;;4.33;1.47;;;;;;;25.62;31.68;99438.38;7017650;28;20201;-81
2022/07/10 11:10:28;;;;;;;2.53;1.50;;;;;;;25.01;31.48;99456.38;7012210;28;20206;-81
2022/07/10 11:13:51;;;;;;;3.13;1.60;;;;;;;25.09;31.91;99437.28;7047024;28;20221;-80
2022/07/10 11:20:53;;;;;;;2.27;1.57;;;;;;;25.76;30.70;99447.66;7003846;28;20217;-81
2022/07/10 11:24:27;;;;;;;2.20;1.67;;;;;;;25.57;30.63;99436.47;7029680;28;20299;-81
2022/07/10 11:28:01;;;;;;;1.87;1.30;;;;;;;24.58;32.73;99444.13;7008338;28;20209;-80
2022/07/10 11:31:24;;;;;;;2.83;1.40;;;;;;;25.26;31.89;99442.47;7017282;28;20714;-81
2022/07/10 11:34:47;;;;;;;2.00;1.30;;;;;;;24.74;31.89;99444.88;7019046;28;20241;-80
2022/07/10 11:38:08;;;;;;;3.10;1.17;;;;;;;24.36;33.09;99442.75;7013097;28;20262;-81
2022/07/10 11:41:31;;;;;;;1.40;1.20;;;;;;;24.71;33.01;99435.25;7009460;28;20209;-80
2022/07/10 11:44:52;;;;;;;1.97;1.40;;;;;;;25.52;32.46;99435.66;7010619;28;20272;-81
2022/07/10 11:48:18;;;;;;;2.30;1.77;;;;;;;26.39;30.98;99432.75;7011344;28;20696;-81
2022/07/10 11:51:42;;;;;;;1.93;1.67;;;;;;;26.70;31.04;99404.50;7023843;28;20228;-81
2022/07/10 11:55:15;;;;;;;2.90;1.83;;;;;;;24.98;32.61;99418.28;7011996;28;20237;-80
2022/07/10 11:58:36;;;;;;;3.07;1.50;;;;;;;24.65;34.00;99441.88;7009218;28;20186;-80
2022/07/10 12:01:58;;;;;;;4.03;1.90;;;;;;;25.77;31.85;99418.94;7009561;28;20218;-79
2022/07/10 12:05:33;;;;;;;4.70;1.90;;;;;;;26.27;30.11;99424.03;7017568;28;20234;-81
2022/07/10 12:08:56;;;;;;;2.30;1.60;;;;;;;26.39;29.60;99405.94;7009392;28;20200;-80
2022/07/10 12:12:24;;;;;;;3.90;1.47;;;;;;;25.60;31.79;99424.84;7008540;28;20197;-79
2022/07/10 12:15:46;;;;;;;3.10;1.70;;;;;;;24.69;32.68;99442.13;7009026;28;20229;-80
2022/07/10 12:19:08;;;;;;;2.80;1.53;;;;;;;25.18;32.35;99432.81;7009904;28;20769;-80
2022/07/10 12:22:31;;;;;;;2.37;1.40;;;;;;;25.22;32.90;99441.34;7036269;28;20208;-80
2022/07/10 12:25:55;;;;;;;2.60;1.53;;;;;;;24.74;33.40;99447.66;7032150;28;20232;-81
2022/07/10 12:29:21;;;;;;;2.17;1.53;;;;;;;25.38;32.08;99430.00;7009425;28;20201;-81
2022/07/10 12:32:43;;;;;;;2.00;1.20;;;;;;;25.51;30.73;99445.06;7028019;28;20213;-81
2022/07/10 12:36:06;;;;;;;3.47;1.50;;;;;;;26.07;30.63;99438.06;7013354;28;20676;-81
2022/07/10 12:39:27;;;;;;;3.47;1.80;;;;;;;26.18;30.64;99420.25;7012460;28;20205;-81
2022/07/10 12:42:50;;;;;;;4.87;1.73;;;;;;;26.02;31.11;99427.03;7012066;28;20722;-82
2022/07/10 12:46:15;;;;;;;3.67;1.70;;;;;;;25.89;30.30;99430.44;7011042;28;20209;-81
2022/07/10 12:49:50;;;;;;;3.90;1.50;;;;;;;26.37;30.79;99429.47;7017799;28;20201;-82
2022/07/10 12:53:13;;;;;;;1.83;1.60;;;;;;;27.01;29.37;99405.75;7019428;28;20228;-82
2022/07/10 12:56:36;;;;;;;2.97;1.50;;;;;;;26.74;29.13;99424.09;7023064;28;20217;-82
2022/07/10 13:00:06;;;;;;;2.70;1.50;;;;;;;26.80;28.52;99404.38;7021422;28;20605;-81
2022/07/10 13:03:29;;;;;;;5.87;1.90;;;;;;;26.07;29.59;99429.75;7012010;28;20793;-81
2022/07/10 13:06:51;;;;;;;2.10;1.30;;;;;;;26.12;29.39;99413.13;7010040;28;20560;-79
2022/07/10 13:10:12;;;;;;;2.50;1.10;;;;;;;26.81;28.68;99430.94;7007467;28;20270;-81
2022/07/10 13:13:34;;;;;;;1.90;1.10;;;;;;;25.59;30.11;99423.19;7012013;28;20276;-82
2022/07/10 13:16:57;;;;;;;2.40;1.30;;;;;;;24.31;32.20;99443.56;7016003;28;20705;-81
2022/07/10 13:20:18;;;;;;;1.73;1.40;;;;;;;25.59;30.09;99420.44;7036818;28;20832;-80
2022/07/10 13:23:42;;;;;;;2.00;1.50;;;;;;;25.99;29.85;99433.97;7019114;28;20289;-81
2022/07/10 13:27:04;;;;;;;5.47;1.80;;;;;;;25.64;30.05;99431.44;7011074;28;20210;-81
2022/07/10 13:30:25;;;;;;;3.53;1.30;;;;;;;25.22;29.58;99433.06;7009238;28;20665;-81
2022/07/10 13:33:48;;;;;;;2.93;1.37;;;;;;;26.35;28.79;99428.91;7008051;28;20249;-81
2022/07/10 13:37:11;;;;;;;2.23;0.97;;;;;;;26.08;27.99;99434.97;7006755;28;20213;-81
2022/07/10 13:40:34;;;;;;;2.23;1.10;;;;;;;26.14;28.49;99417.22;7005552;28;20213;-80
2022/07/10 13:43:56;;;;;;;1.37;1.00;;;;;;;25.17;30.03;99433.09;7006293;28;20231;-80
2022/07/10 13:47:18;;;;;;;1.60;1.10;;;;;;;25.78;28.64;99429.69;7006450;28;20209;-81
2022/07/10 13:50:41;;;;;;;3.60;1.40;;;;;;;25.31;29.58;99437.75;7019067;28;20674;-81
2022/07/10 13:54:03;;;;;;;1.83;1.10;;;;;;;25.76;29.03;99431.06;7035076;28;20229;-81
2022/07/10 13:57:25;;;;;;;1.83;1.20;;;;;;;25.89;28.88;99422.16;7020903;28;20222;-81
2022/07/10 14:00:47;;;;;;;2.87;1.60;;;;;;;25.78;28.71;99423.34;7011647;28;20611;-81
2022/07/10 14:04:09;;;;;;;2.67;1.40;;;;;;;25.86;28.60;99417.19;7019053;28;20230;-83
2022/07/10 14:07:32;;;;;;;4.80;1.30;;;;;;;26.56;27.72;99416.56;7030466;28;20659;-81
2022/07/10 14:10:53;;;;;;;1.67;1.03;;;;;;;25.81;27.69;99426.34;7017417;28;20651;-81
2022/07/10 14:14:15;;;;;;;1.40;1.20;;;;;;;25.84;28.67;99430.47;7019510;28;20724;-81
2022/07/10 14:17:37;;;;;;;2.07;1.33;;;;;;;24.32;30.05;99368.06;7022565;28;20221;-80
2022/07/10 14:21:04;;;;;;;1.57;1.03;;;;;;;26.70;28.00;99404.50;7017713;28;20206;-80
2022/07/10 14:24:27;;;;;;;3.17;0.90;;;;;;;26.36;27.10;99427.81;7017931;28;20228;-83
2022/07/10 14:27:48;;;;;;;4.47;1.20;;;;;;;26.31;27.38;99420.38;7018020;28;20217;-82
2022/07/10 14:31:10;;;;;;;2.17;1.20;;;;;;;26.73;27.56;99406.66;7021873;28;20206;-85
2022/07/10 14:34:32;;;;;;;1.80;1.00;;;;;;;27.09;26.96;99420.88;7031526;28;20435;-80
2022/07/10 14:37:53;;;;;;;1.37;1.20;;;;;;;25.63;28.72;99421.53;7023849;28;20234;-80
2022/07/10 14:41:17;;;;;;;3.03;1.20;;;;;;;26.33;28.11;99429.22;7034700;28;20203;-82
2022/07/10 14:44:38;;;;;;;1.57;1.07;;;;;;;26.14;28.34;99427.47;7034851;28;20255;-80
2022/07/10 14:48:00;;;;;;;3.07;1.27;;;;;;;26.26;27.92;99398.31;7030526;28;20254;-80
2022/07/10 14:51:21;;;;;;;1.73;1.30;;;;;;;25.59;28.24;99422.41;7034113;28;20240;-81
2022/07/10 14:54:44;;;;;;;4.13;1.07;;;;;;;25.97;28.01;99430.69;7032450;28;20628;-81
2022/07/10 14:58:07;;;;;;;1.70;1.10;;;;;;;26.24;28.14;99408.03;7015437;28;20330;-83
2022/07/10 15:01:28;;;;;;;2.23;1.23;;;;;;;26.63;27.68;99419.78;7018852;28;20202;-81
2022/07/10 15:04:50;;;;;;;4.87;2.57;;;;;;;27.00;27.01;99442.03;7015259;28;20257;-82
2022/07/10 15:08:12;;;;;;;1.83;1.27;;;;;;;26.38;26.91;99423.66;7030340;28;20211;-81
2022/07/10 15:11:34;;;;;;;2.57;1.40;;;;;;;26.62;27.37;99426.44;7016134;28;20201;-82
2022/07/10 15:14:56;;;;;;;3.53;1.40;;;;;;;27.01;26.63;99416.81;7003367;28;20226;-80
2022/07/10 15:18:18;;;;;;;2.70;1.37;;;;;;;27.18;26.19;99394.22;7002174;28;20271;-82
2022/07/10 15:21:40;;;;;;;1.50;0.97;;;;;;;27.00;26.04;99414.34;7001919;28;20256;-81
2022/07/10 15:25:01;;;;;;;2.77;1.47;;;;;;;26.72;26.16;99415.28;7014056;28;20276;-81
2022/07/10 15:28:23;;;;;;;2.57;1.27;;;;;;;26.67;26.27;99412.56;7010150;28;20206;-82
2022/07/10 15:31:46;;;;;;;1.17;0.90;;;;;;;26.58;26.92;99406.84;7007664;28;20233;-82
2022/07/10 15:35:08;;;;;;;2.47;1.27;;;;;;;26.88;26.28;99403.72;7010004;28;20263;-81
2022/07/10 15:38:31;;;;;;;2.13;1.47;;;;;;;26.15;26.67;99396.78;7036391;28;20279;-81
2022/07/10 15:41:52;;;;;;;2.70;1.00;;;;;;;25.90;27.54;99404.47;7032277;28;20255;-81
2022/07/10 15:45:14;;;;;;;1.83;0.93;;;;;;;26.42;26.72;99404.53;7008601;28;20239;-80
2022/07/10 15:48:38;;;;;;;3.07;1.40;;;;;;;25.92;26.71;99403.09;7035332;28;20205;-81
2022/07/10 15:52:00;;;;;;;2.10;1.13;;;;;;;26.21;26.90;99398.38;7036178;28;20283;-82
2022/07/10 15:55:21;;;;;;;1.47;1.00;;;;;;;26.71;26.37;99388.72;7034655;28;20262;-81
2022/07/10 15:58:44;;;;;;;1.53;1.17;;;;;;;26.71;26.30;99391.50;7036553;28;20202;-82
2022/07/10 16:02:06;;;;;;;2.67;1.17;;;;;;;26.94;26.32;99394.22;7036883;28;20207;-82
2022/07/10 16:05:29;;;;;;;2.67;1.60;;;;;;;27.20;25.92;99395.53;7019322;28;20267;-81
2022/07/10 16:08:50;;;;;;;1.93;1.40;;;;;;;26.95;25.84;99400.59;7029096;28;20201;-81
2022/07/10 16:12:12;;;;;;;2.87;1.23;;;;;;;26.81;26.36;99383.88;7026880;28;20209;-82
2022/07/10 16:15:33;;;;;;;3.13;1.10;;;;;;;26.35;26.79;99360.63;7011783;28;20226;-81